Time;durP1;ratioP1;P1;durP2;ratioP2;P2;SDS_P1;SDS_P2;PMS_P1;PMS_P2;Temp;Humidity;BMP_temperature;BMP_pressure;BME280_temperature;BME280_humidity;BME280_pressure;Samples;Min_cycle;Max_cycle;Signal;HPM_P1;HPM_P2
2023/11/10 00:01:19;;;;;;;3.67;2.37;;;7.40;99.90;;;;;;5041807;28;20284;-63
2023/11/10 00:03:47;;;;;;;3.60;2.23;;;7.50;99.90;;;;;;5037945;28;20564;-62
2023/11/10 00:06:16;;;;;;;2.20;2.00;;;7.50;99.90;;;;;;5038738;28;20253;-62
2023/11/10 00:08:44;;;;;;;4.17;2.17;;;7.40;99.90;;;;;;5038225;28;20630;-62
2023/11/10 00:11:14;;;;;;;5.97;2.27;;;7.40;99.90;;;;;;5040386;28;20583;-62
2023/11/10 00:13:42;;;;;;;7.00;2.30;;;7.40;99.90;;;;;;5034042;28;20193;-60
2023/11/10 00:16:10;;;;;;;7.07;2.40;;;7.40;99.90;;;;;;5040808;28;20311;-62
2023/11/10 00:18:40;;;;;;;3.30;1.90;;;7.40;99.90;;;;;;5043524;28;20583;-63
2023/11/10 00:21:11;;;;;;;2.43;2.10;;;7.40;99.90;;;;;;5041929;28;20315;-62
2023/11/10 00:23:40;;;;;;;2.30;1.90;;;7.40;99.90;;;;;;5034410;28;20232;-62
2023/11/10 00:26:08;;;;;;;2.37;2.17;;;7.40;99.90;;;;;;5041702;28;20229;-62
2023/11/10 00:28:40;;;;;;;5.27;2.10;;;7.40;99.90;;;;;;5046794;28;20192;-62
2023/11/10 00:31:08;;;;;;;5.57;1.90;;;7.40;99.90;;;;;;5042343;28;20221;-63
2023/11/10 00:33:36;;;;;;;4.97;2.00;;;7.40;99.90;;;;;;5042142;28;20216;-63
2023/11/10 00:36:08;;;;;;;2.47;2.07;;;7.30;99.90;;;;;;5041067;28;20225;-62
2023/11/10 00:38:36;;;;;;;2.50;2.00;;;7.30;99.90;;;;;;5042485;28;20233;-62
2023/11/10 00:41:05;;;;;;;5.67;2.10;;;7.30;99.90;;;;;;5047165;28;20220;-62
2023/11/10 00:43:34;;;;;;;3.03;2.17;;;7.30;99.90;;;;;;5043334;28;20200;-63
2023/11/10 00:46:04;;;;;;;2.70;1.73;;;7.30;99.90;;;;;;5043537;28;20221;-63
2023/11/10 00:48:32;;;;;;;4.17;1.90;;;7.20;99.90;;;;;;5044824;28;20300;-62
2023/11/10 00:51:01;;;;;;;2.10;1.87;;;7.20;99.90;;;;;;5042643;28;20217;-62
2023/11/10 00:53:29;;;;;;;5.60;2.00;;;7.10;99.90;;;;;;5047134;28;20239;-62
2023/11/10 00:55:57;;;;;;;3.20;1.97;;;7.20;99.90;;;;;;5044863;28;20567;-62
2023/11/10 00:58:26;;;;;;;2.53;1.80;;;7.10;99.90;;;;;;5041376;28;21088;-63
2023/11/10 01:00:54;;;;;;;3.43;1.77;;;7.10;99.90;;;;;;5037042;28;20227;-62
2023/11/10 01:03:23;;;;;;;4.53;1.97;;;7.10;99.90;;;;;;5038167;28;20221;-63
2023/11/10 01:05:52;;;;;;;3.07;1.83;;;7.10;99.90;;;;;;5044990;28;20229;-62
2023/11/10 01:08:20;;;;;;;2.27;1.80;;;7.10;99.90;;;;;;5044758;28;20219;-62
2023/11/10 01:10:48;;;;;;;10.13;2.57;;;7.10;99.90;;;;;;5039743;28;20197;-62
2023/11/10 01:13:17;;;;;;;2.33;2.10;;;7.10;99.90;;;;;;5044110;28;20517;-62
2023/11/10 01:15:45;;;;;;;3.73;2.30;;;7.10;99.90;;;;;;5041812;28;20213;-63
2023/11/10 01:18:13;;;;;;;4.43;2.23;;;7.20;99.90;;;;;;5043540;28;20221;-62
2023/11/10 01:20:43;;;;;;;6.27;2.80;;;7.20;99.90;;;;;;5040760;28;20217;-62
2023/11/10 01:23:11;;;;;;;3.23;2.00;;;7.20;99.90;;;;;;5042770;28;20649;-62
2023/11/10 01:25:39;;;;;;;2.27;2.03;;;7.20;99.90;;;;;;5040945;28;20570;-62
2023/11/10 01:28:07;;;;;;;9.80;2.43;;;7.20;99.90;;;;;;5043401;28;20663;-62
2023/11/10 01:30:35;;;;;;;5.13;2.67;;;7.30;99.90;;;;;;5041997;28;20236;-62
2023/11/10 01:33:07;;;;;;;4.10;2.17;;;7.30;99.90;;;;;;5040746;28;20217;-63
2023/11/10 01:35:35;;;;;;;4.33;2.37;;;7.30;99.90;;;;;;5040740;28;20225;-63
2023/11/10 01:38:06;;;;;;;2.43;2.17;;;7.30;99.90;;;;;;5040906;28;20224;-62
2023/11/10 01:40:38;;;;;;;6.40;2.27;;;7.20;99.90;;;;;;5045912;28;20180;-63
2023/11/10 01:43:10;;;;;;;2.67;1.83;;;7.20;99.90;;;;;;5046678;28;20578;-62
2023/11/10 01:45:38;;;;;;;5.33;2.03;;;7.20;99.90;;;;;;5042965;28;20239;-63
2023/11/10 01:48:10;;;;;;;2.57;1.80;;;7.20;99.90;;;;;;5036760;28;20225;-62
2023/11/10 01:50:41;;;;;;;3.73;1.90;;;7.20;99.90;;;;;;5043684;28;20214;-62
2023/11/10 01:53:11;;;;;;;2.90;1.87;;;7.20;99.90;;;;;;5043101;28;20237;-62
2023/11/10 01:55:41;;;;;;;2.17;1.80;;;7.20;99.90;;;;;;5046753;28;20204;-62
2023/11/10 01:58:11;;;;;;;4.70;1.80;;;7.20;99.90;;;;;;5044479;28;20199;-63
2023/11/10 02:00:40;;;;;;;1.53;1.43;;;7.20;99.90;;;;;;5045361;28;20743;-62
2023/11/10 02:03:08;;;;;;;1.80;1.67;;;7.10;99.90;;;;;;5042859;28;20225;-62
2023/11/10 02:05:37;;;;;;;3.20;1.87;;;7.10;99.90;;;;;;5041244;28;20633;-63
2023/11/10 02:08:06;;;;;;;1.30;1.30;;;7.00;99.90;;;;;;5041312;28;20232;-62
2023/11/10 02:10:37;;;;;;;2.53;1.60;;;7.10;99.90;;;;;;5046009;28;20233;-63
2023/11/10 02:13:05;;;;;;;3.93;1.70;;;7.00;99.90;;;;;;5038711;28;20772;-63
2023/11/10 02:15:34;;;;;;;3.07;1.90;;;6.90;99.90;;;;;;5041872;28;20224;-62
2023/11/10 02:18:02;;;;;;;2.37;1.70;;;6.90;99.90;;;;;;5040903;28;20213;-62
2023/11/10 02:20:30;;;;;;;5.40;2.13;;;6.90;99.90;;;;;;5040707;28;20217;-62
2023/11/10 02:22:59;;;;;;;2.23;1.93;;;6.80;99.90;;;;;;5043753;28;20243;-62
2023/11/10 02:25:30;;;;;;;6.03;1.80;;;6.90;99.90;;;;;;5039302;28;20270;-63
2023/11/10 02:27:58;;;;;;;2.33;1.70;;;6.80;99.90;;;;;;5043174;28;20228;-63
2023/11/10 02:30:26;;;;;;;6.60;1.90;;;6.80;99.90;;;;;;5040027;28;20316;-62
2023/11/10 02:32:55;;;;;;;4.10;1.77;;;6.90;99.90;;;;;;5040637;28;20216;-62
2023/11/10 02:35:23;;;;;;;1.80;1.70;;;6.90;99.90;;;;;;5041986;28;20274;-62
2023/11/10 02:37:51;;;;;;;3.50;1.67;;;7.00;99.90;;;;;;5041856;28;20221;-62
2023/11/10 02:40:19;;;;;;;6.33;1.70;;;7.10;99.90;;;;;;5041188;28;20195;-63
2023/11/10 02:42:49;;;;;;;3.33;1.63;;;7.10;99.90;;;;;;5037768;28;20219;-63
2023/11/10 02:45:17;;;;;;;4.30;1.73;;;7.10;99.90;;;;;;5041672;28;20220;-62
2023/11/10 02:47:46;;;;;;;2.53;1.60;;;7.10;99.90;;;;;;5040595;28;20680;-62
2023/11/10 02:50:14;;;;;;;7.30;2.00;;;7.10;99.90;;;;;;5039632;28;20299;-62
2023/11/10 02:52:45;;;;;;;5.43;2.30;;;7.00;99.90;;;;;;5039118;28;20197;-62
2023/11/10 02:55:13;;;;;;;7.53;2.00;;;7.00;99.90;;;;;;5045469;28;20197;-62
2023/11/10 02:57:42;;;;;;;3.90;2.10;;;6.90;99.90;;;;;;5037680;28;20216;-62
2023/11/10 03:00:13;;;;;;;3.87;1.70;;;6.90;99.90;;;;;;5041450;28;20231;-63
2023/11/10 03:02:42;;;;;;;4.00;2.10;;;6.90;99.90;;;;;;5040879;28;20311;-62
2023/11/10 03:05:10;;;;;;;7.33;2.30;;;6.90;99.90;;;;;;5039562;28;20799;-62
2023/11/10 03:07:38;;;;;;;3.53;2.07;;;6.90;99.90;;;;;;5039408;28;20208;-62
2023/11/10 03:10:08;;;;;;;2.77;2.17;;;6.90;99.90;;;;;;5041149;28;20204;-63
2023/11/10 03:12:37;;;;;;;4.33;2.30;;;6.80;99.90;;;;;;5037220;28;20248;-62
2023/11/10 03:15:07;;;;;;;3.93;1.93;;;6.90;99.90;;;;;;5039612;28;20216;-62
2023/11/10 03:17:36;;;;;;;4.97;1.97;;;6.80;99.90;;;;;;5041447;28;20220;-62
2023/11/10 03:20:09;;;;;;;4.23;1.80;;;6.90;99.90;;;;;;5043123;28;20699;-62
2023/11/10 03:22:37;;;;;;;4.53;1.93;;;6.90;99.90;;;;;;5042280;28;20236;-59
2023/11/10 03:25:06;;;;;;;9.43;1.80;;;6.80;99.90;;;;;;5042132;28;20201;-62
2023/11/10 03:27:36;;;;;;;2.97;1.67;;;6.80;99.90;;;;;;5040492;28;20220;-62
2023/11/10 03:30:05;;;;;;;6.43;1.80;;;6.80;99.90;;;;;;5040399;28;20221;-63
2023/11/10 03:32:33;;;;;;;6.30;1.90;;;6.80;99.90;;;;;;5041509;28;20225;-62
2023/11/10 03:35:05;;;;;;;4.13;1.90;;;6.80;99.90;;;;;;5037284;28;20217;-62
2023/11/10 03:37:34;;;;;;;3.97;1.80;;;6.90;99.90;;;;;;5038323;28;20227;-63
2023/11/10 03:40:03;;;;;;;2.60;1.87;;;6.80;99.90;;;;;;5038002;28;20224;-63
2023/11/10 03:42:32;;;;;;;7.77;2.00;;;6.70;99.90;;;;;;5039034;28;20213;-62
2023/11/10 03:45:00;;;;;;;5.10;2.00;;;6.70;99.90;;;;;;5039550;28;20881;-63
2023/11/10 03:47:28;;;;;;;4.57;2.07;;;6.70;99.90;;;;;;5038660;28;20227;-62
2023/11/10 03:49:57;;;;;;;5.53;2.63;;;6.60;99.90;;;;;;5041890;28;20697;-62
2023/11/10 03:52:26;;;;;;;5.23;2.30;;;6.60;99.90;;;;;;5040199;28;20654;-63
2023/11/10 03:54:55;;;;;;;3.93;2.00;;;6.60;99.90;;;;;;5039311;28;20228;-63
2023/11/10 03:57:23;;;;;;;5.03;2.13;;;6.60;99.90;;;;;;5038446;28;20213;-63
2023/11/10 03:59:51;;;;;;;4.23;2.20;;;6.60;99.90;;;;;;5042315;28;20552;-62
2023/11/10 04:02:19;;;;;;;5.27;2.00;;;6.60;99.90;;;;;;5041167;28;20576;-63
2023/11/10 04:04:47;;;;;;;7.43;2.10;;;6.60;99.90;;;;;;5045377;28;20215;-62
2023/11/10 04:07:15;;;;;;;7.03;2.00;;;6.60;99.90;;;;;;5042708;28;20197;-63
2023/11/10 04:09:45;;;;;;;3.47;2.03;;;6.60;99.90;;;;;;5041406;28;20259;-63
2023/11/10 04:12:14;;;;;;;6.07;2.10;;;6.60;99.90;;;;;;5041903;28;20589;-64
2023/11/10 04:14:42;;;;;;;4.43;2.03;;;6.50;99.90;;;;;;5040353;28;20228;-62
2023/11/10 04:17:11;;;;;;;5.30;2.13;;;6.50;99.90;;;;;;5043838;28;20575;-62
2023/11/10 04:19:39;;;;;;;9.27;2.73;;;6.50;99.90;;;;;;5046882;28;20640;-62
2023/11/10 04:22:07;;;;;;;6.33;1.90;;;6.50;99.90;;;;;;5048584;28;20243;-62
2023/11/10 04:24:35;;;;;;;2.60;1.73;;;6.50;99.90;;;;;;5045719;28;20220;-62
2023/11/10 04:27:06;;;;;;;3.40;2.00;;;6.50;99.90;;;;;;5042445;28;20307;-63
2023/11/10 04:29:36;;;;;;;3.57;2.00;;;6.50;99.90;;;;;;5040531;28;20217;-62
2023/11/10 04:32:04;;;;;;;6.17;1.83;;;6.50;99.90;;;;;;5045108;28;20587;-62
2023/11/10 04:34:33;;;;;;;3.17;1.63;;;6.50;99.90;;;;;;5041454;28;20189;-63
2023/11/10 04:37:02;;;;;;;7.07;1.90;;;6.40;99.90;;;;;;5043150;28;20616;-63
2023/11/10 04:39:30;;;;;;;5.30;2.13;;;6.50;99.90;;;;;;5039083;28;20263;-63
2023/11/10 04:41:59;;;;;;;4.23;2.03;;;6.60;99.90;;;;;;5044671;28;20216;-62
2023/11/10 04:44:28;;;;;;;5.93;2.17;;;6.60;99.90;;;;;;5043336;28;20227;-62
2023/11/10 04:46:58;;;;;;;4.83;2.10;;;6.60;99.90;;;;;;5044401;28;20185;-62
2023/11/10 04:49:27;;;;;;;2.80;1.70;;;6.60;99.90;;;;;;5040615;28;20220;-63
2023/11/10 04:51:55;;;;;;;2.13;1.80;;;6.70;99.90;;;;;;5044658;28;20232;-63
2023/11/10 04:54:24;;;;;;;4.83;1.87;;;6.70;99.90;;;;;;5041239;28;20711;-62
2023/11/10 04:56:52;;;;;;;5.77;2.07;;;6.70;99.90;;;;;;5045065;28;20290;-63
2023/11/10 04:59:20;;;;;;;5.27;2.47;;;6.70;99.90;;;;;;5043464;28;20217;-62
2023/11/10 05:01:50;;;;;;;8.03;2.43;;;6.70;99.90;;;;;;5037964;28;20185;-62
2023/11/10 05:04:18;;;;;;;10.83;2.37;;;6.70;99.90;;;;;;5043415;28;20201;-63
2023/11/10 05:06:46;;;;;;;3.07;2.07;;;6.70;99.90;;;;;;5044522;28;20217;-62
2023/11/10 05:09:14;;;;;;;5.50;2.10;;;6.70;99.90;;;;;;5044773;28;20229;-63
2023/11/10 05:11:42;;;;;;;7.53;2.40;;;6.70;99.90;;;;;;5042851;28;20224;-62
2023/11/10 05:14:11;;;;;;;6.23;2.30;;;6.70;99.90;;;;;;5045947;28;20232;-62
2023/11/10 05:16:40;;;;;;;4.63;2.43;;;6.70;99.90;;;;;;5040701;28;20205;-62
2023/11/10 05:19:09;;;;;;;7.77;2.40;;;6.80;99.90;;;;;;5045808;28;20219;-63
2023/11/10 05:21:38;;;;;;;7.43;2.00;;;6.80;99.90;;;;;;5041209;28;20283;-63
2023/11/10 05:24:08;;;;;;;10.87;2.70;;;6.90;99.90;;;;;;5044726;28;20835;-62
2023/11/10 05:26:36;;;;;;;4.37;2.13;;;6.90;99.90;;;;;;5045196;28;20721;-62
2023/11/10 05:29:04;;;;;;;5.07;2.70;;;6.90;99.90;;;;;;5041281;28;20584;-62
2023/11/10 05:31:33;;;;;;;9.83;2.70;;;7.00;99.90;;;;;;5042197;28;20207;-63
2023/11/10 05:34:01;;;;;;;9.60;3.20;;;7.00;99.90;;;;;;5040163;28;20239;-63
2023/11/10 05:36:30;;;;;;;5.80;2.80;;;6.90;99.90;;;;;;5036949;28;20296;-63
2023/11/10 05:38:59;;;;;;;12.30;2.83;;;7.00;99.90;;;;;;5042317;28;20271;-63
2023/11/10 05:41:27;;;;;;;5.40;2.33;;;7.00;99.90;;;;;;5038640;28;20721;-64
2023/11/10 05:43:55;;;;;;;8.73;2.90;;;7.00;99.90;;;;;;5044971;28;20189;-62
2023/11/10 05:46:23;;;;;;;11.47;2.20;;;7.00;99.90;;;;;;5046341;28;20613;-62
2023/11/10 05:48:51;;;;;;;7.43;2.50;;;7.00;99.90;;;;;;5041981;28;20213;-63
2023/11/10 05:51:20;;;;;;;8.50;2.90;;;7.00;99.90;;;;;;5044790;28;20606;-63
2023/11/10 05:53:50;;;;;;;9.57;2.80;;;7.00;99.90;;;;;;5040306;28;20213;-63
2023/11/10 05:56:18;;;;;;;12.00;2.90;;;7.00;99.90;;;;;;5047096;28;20308;-63
2023/11/10 05:58:51;;;;;;;7.47;2.53;;;7.00;99.90;;;;;;5041548;28;20205;-63
2023/11/10 06:01:23;;;;;;;4.20;2.43;;;7.00;99.90;;;;;;5041932;28;20196;-63
2023/11/10 06:03:52;;;;;;;13.23;2.77;;;7.00;99.90;;;;;;5034361;28;20220;-63
2023/11/10 06:06:21;;;;;;;9.43;2.40;;;7.00;99.90;;;;;;5043472;28;20267;-62
2023/11/10 06:08:52;;;;;;;4.50;2.53;;;6.90;99.90;;;;;;5040189;28;20320;-63
2023/11/10 06:11:21;;;;;;;8.97;2.57;;;6.90;99.90;;;;;;5041945;28;20220;-63
2023/11/10 06:13:50;;;;;;;3.73;2.30;;;6.90;99.90;;;;;;5040519;28;20320;-62
2023/11/10 06:16:19;;;;;;;10.20;2.63;;;6.90;99.90;;;;;;5043995;28;20196;-63
2023/11/10 06:18:47;;;;;;;8.17;2.70;;;6.90;99.90;;;;;;5040285;28;20678;-63
2023/11/10 06:21:21;;;;;;;9.47;2.60;;;6.90;99.90;;;;;;5040701;28;20579;-63
2023/11/10 06:23:51;;;;;;;7.33;2.20;;;6.90;99.90;;;;;;5037685;28;20224;-63
2023/11/10 06:26:20;;;;;;;10.00;2.20;;;6.90;99.90;;;;;;5037347;28;20225;-63
2023/11/10 06:28:48;;;;;;;12.63;2.40;;;6.90;99.90;;;;;;5038569;28;20662;-62
2023/11/10 06:31:16;;;;;;;8.90;2.67;;;6.90;99.90;;;;;;5041552;28;20192;-62
2023/11/10 06:33:45;;;;;;;4.93;2.20;;;6.90;99.90;;;;;;5041676;28;20216;-63
2023/11/10 06:36:14;;;;;;;8.90;2.10;;;6.90;99.90;;;;;;5041556;28;20328;-62
2023/11/10 06:38:42;;;;;;;2.53;2.20;;;6.90;99.90;;;;;;5036969;28;20220;-63
2023/11/10 06:41:12;;;;;;;8.07;2.10;;;6.80;99.90;;;;;;5040447;28;20580;-64
2023/11/10 06:43:42;;;;;;;10.57;2.57;;;6.90;99.90;;;;;;5039577;28;20188;-62
2023/11/10 06:46:11;;;;;;;14.20;2.63;;;6.80;99.90;;;;;;5038785;28;20694;-63
2023/11/10 06:48:39;;;;;;;10.53;2.77;;;6.90;99.90;;;;;;5042272;28;20679;-63
2023/11/10 06:51:07;;;;;;;16.10;3.30;;;6.90;99.90;;;;;;5038192;28;20220;-63
2023/11/10 06:53:35;;;;;;;6.23;2.77;;;6.90;99.90;;;;;;5041644;28;20232;-63
2023/11/10 06:56:04;;;;;;;6.53;2.73;;;6.90;99.90;;;;;;5042563;28;20229;-62
2023/11/10 06:58:34;;;;;;;8.73;2.60;;;6.80;99.90;;;;;;5038506;28;20215;-63
2023/11/10 07:01:02;;;;;;;7.60;2.87;;;6.90;99.90;;;;;;5024416;28;20217;-62
2023/11/10 07:03:30;;;;;;;7.40;2.40;;;6.90;99.90;;;;;;5020153;28;20216;-62
2023/11/10 07:05:59;;;;;;;9.00;2.70;;;6.80;99.90;;;;;;5020331;28;20568;-62
2023/11/10 07:08:27;;;;;;;4.23;2.33;;;6.80;99.90;;;;;;5021810;28;20221;-62
2023/11/10 07:10:59;;;;;;;8.97;2.60;;;6.80;99.90;;;;;;5019105;28;20189;-63
2023/11/10 07:13:28;;;;;;;7.47;2.60;;;6.80;99.90;;;;;;5020787;28;20194;-63
2023/11/10 07:15:58;;;;;;;8.97;2.50;;;6.80;99.90;;;;;;5019011;28;20226;-62
2023/11/10 07:18:30;;;;;;;9.70;2.87;;;6.70;99.90;;;;;;5019021;28;20272;-63
2023/11/10 07:20:59;;;;;;;11.23;2.87;;;6.70;99.90;;;;;;5021686;28;20221;-62
2023/11/10 07:23:27;;;;;;;11.27;2.97;;;6.70;99.90;;;;;;5019771;28;20221;-62
2023/11/10 07:25:55;;;;;;;10.67;2.77;;;6.70;99.90;;;;;;5021845;28;20194;-62
2023/11/10 07:28:23;;;;;;;6.63;2.90;;;6.70;99.90;;;;;;5022876;28;20224;-62
2023/11/10 07:30:52;;;;;;;12.57;3.20;;;6.70;99.90;;;;;;5015137;28;20225;-62
2023/11/10 07:33:21;;;;;;;17.57;3.50;;;6.70;99.90;;;;;;5018923;28;20272;-62
2023/11/10 07:35:50;;;;;;;7.87;3.30;;;6.70;99.90;;;;;;5018762;28;20221;-62
2023/11/10 07:38:18;;;;;;;9.57;3.03;;;6.70;99.90;;;;;;5016131;28;20221;-62
2023/11/10 07:40:46;;;;;;;10.30;3.30;;;6.70;99.90;;;;;;5018887;28;20221;-61
2023/11/10 07:43:17;;;;;;;5.80;2.50;;;6.80;99.90;;;;;;5019280;28;20289;-62
2023/11/10 07:45:45;;;;;;;6.33;2.90;;;6.80;99.90;;;;;;5018273;28;20225;-63
2023/11/10 07:48:14;;;;;;;8.93;2.90;;;6.80;99.90;;;;;;5017708;28;20313;-62
2023/11/10 07:50:44;;;;;;;14.47;3.47;;;6.80;99.90;;;;;;5019376;28;20217;-62
2023/11/10 07:53:13;;;;;;;9.50;3.07;;;6.80;99.90;;;;;;5019212;28;20305;-62
2023/11/10 07:55:43;;;;;;;7.07;2.90;;;6.80;99.90;;;;;;5020436;28;20209;-61
2023/11/10 07:58:11;;;;;;;8.07;3.20;;;6.80;99.90;;;;;;5023776;28;20197;-62
2023/11/10 08:00:39;;;;;;;10.47;3.40;;;6.80;99.90;;;;;;5033199;28;20230;-62
2023/11/10 08:03:07;;;;;;;13.27;3.07;;;6.80;99.90;;;;;;5015998;28;20222;-62
2023/11/10 08:05:35;;;;;;;11.30;3.10;;;6.80;99.90;;;;;;5015974;28;20217;-63
2023/11/10 08:08:07;;;;;;;10.70;2.90;;;6.80;99.90;;;;;;5018522;28;20315;-62
2023/11/10 08:10:35;;;;;;;9.73;2.90;;;6.80;99.90;;;;;;5017767;28;20190;-62
2023/11/10 08:13:03;;;;;;;6.27;2.87;;;6.80;99.90;;;;;;5018573;28;20288;-63
2023/11/10 08:15:31;;;;;;;9.07;3.10;;;6.90;99.90;;;;;;5017429;28;20224;-63
2023/11/10 08:17:59;;;;;;;12.87;3.43;;;6.90;99.90;;;;;;5019849;28;20576;-62
2023/11/10 08:20:28;;;;;;;8.87;3.40;;;6.90;99.90;;;;;;5014640;28;20225;-62
2023/11/10 08:22:56;;;;;;;7.87;4.23;;;7.00;99.90;;;;;;5024895;28;20230;-62
2023/11/10 08:25:27;;;;;;;17.40;3.57;;;7.00;99.90;;;;;;5020606;28;20198;-62
2023/11/10 08:27:55;;;;;;;12.63;3.03;;;7.10;99.90;;;;;;5021659;28;20311;-63
2023/11/10 08:30:24;;;;;;;9.70;3.07;;;7.10;99.90;;;;;;5020519;28;20729;-62
2023/11/10 08:32:53;;;;;;;11.10;3.20;;;7.10;99.90;;;;;;5011914;28;20233;-62
2023/11/10 08:35:21;;;;;;;6.70;3.20;;;7.20;99.90;;;;;;5022815;28;20228;-62
2023/11/10 08:37:49;;;;;;;8.63;2.77;;;7.20;99.90;;;;;;5036297;28;20190;-61
2023/11/10 08:40:18;;;;;;;5.80;2.87;;;7.30;99.90;;;;;;5033968;28;20675;-62
2023/11/10 08:42:47;;;;;;;10.40;3.23;;;7.30;99.90;;;;;;5036739;28;20716;-62
2023/11/10 08:45:16;;;;;;;9.30;3.27;;;7.30;99.90;;;;;;5034701;28;20214;-62
2023/11/10 08:47:44;;;;;;;6.30;2.93;;;7.40;99.90;;;;;;5043160;28;20260;-63
2023/11/10 08:50:13;;;;;;;9.07;3.17;;;7.40;99.90;;;;;;5039501;28;20575;-62
2023/11/10 08:52:46;;;;;;;8.60;2.57;;;7.40;99.90;;;;;;5040553;28;20192;-62
2023/11/10 08:55:17;;;;;;;8.17;2.87;;;7.40;99.90;;;;;;5042639;28;20635;-62
2023/11/10 08:57:47;;;;;;;8.80;2.90;;;7.50;99.90;;;;;;5041040;28;20213;-62
2023/11/10 09:00:17;;;;;;;6.13;2.70;;;7.50;99.90;;;;;;5039573;28;20217;-63
2023/11/10 09:02:46;;;;;;;9.53;3.13;;;7.60;99.90;;;;;;5041659;28;20220;-62
2023/11/10 09:05:15;;;;;;;14.27;3.30;;;7.60;99.90;;;;;;5036723;28;20236;-62
2023/11/10 09:07:43;;;;;;;7.33;2.93;;;7.60;99.90;;;;;;5038215;28;20699;-61
2023/11/10 09:10:11;;;;;;;6.53;2.67;;;7.70;99.90;;;;;;5041451;28;20256;-62
2023/11/10 09:12:44;;;;;;;10.47;2.73;;;7.70;99.90;;;;;;5040831;28;20343;-62
2023/11/10 09:15:14;;;;;;;6.00;2.67;;;7.80;99.90;;;;;;5036605;28;20218;-62
2023/11/10 09:17:44;;;;;;;9.83;2.93;;;7.80;99.90;;;;;;5040565;28;20213;-63
2023/11/10 09:20:15;;;;;;;4.87;2.80;;;7.80;99.90;;;;;;5039490;28;20225;-62
2023/11/10 09:22:44;;;;;;;7.97;2.70;;;7.90;99.90;;;;;;5044288;28;20354;-62
2023/11/10 09:25:16;;;;;;;6.43;2.57;;;7.90;99.90;;;;;;5042702;28;20193;-63
2023/11/10 09:27:45;;;;;;;8.40;2.50;;;7.90;99.90;;;;;;5042402;28;20652;-63
2023/11/10 09:30:15;;;;;;;6.73;2.30;;;8.00;99.90;;;;;;5039530;28;20753;-63
2023/11/10 09:32:44;;;;;;;7.20;2.23;;;8.00;99.90;;;;;;5039404;28;20225;-63
2023/11/10 09:35:13;;;;;;;6.90;2.40;;;8.00;99.90;;;;;;5043217;28;20232;-63
2023/11/10 09:37:46;;;;;;;4.67;2.07;;;8.00;99.90;;;;;;5041290;28;20214;-63
2023/11/10 09:40:19;;;;;;;3.40;1.90;;;8.00;99.90;;;;;;5046584;28;20209;-63
2023/11/10 09:42:48;;;;;;;4.23;1.90;;;8.00;99.90;;;;;;5036500;28;20219;-63
2023/11/10 09:45:18;;;;;;;1.93;1.77;;;8.00;99.90;;;;;;5045072;28;20220;-63
2023/11/10 09:47:53;;;;;;;4.10;1.77;;;8.00;99.90;;;;;;5039757;28;20814;-63
2023/11/10 09:50:25;;;;;;;2.13;1.60;;;7.90;99.90;;;;;;5041039;28;20317;-62
2023/11/10 09:52:56;;;;;;;2.77;1.93;;;7.90;99.90;;;;;;5037717;28;20328;-62
2023/11/10 09:55:25;;;;;;;4.57;1.87;;;7.90;99.90;;;;;;5043467;28;20189;-63
2023/11/10 09:57:55;;;;;;;3.60;2.00;;;7.90;99.90;;;;;;5040617;28;20742;-63
2023/11/10 10:00:26;;;;;;;5.23;2.30;;;8.00;99.90;;;;;;5041292;28;20404;-63
2023/11/10 10:02:54;;;;;;;4.43;2.00;;;8.00;99.90;;;;;;5037126;28;20816;-63
2023/11/10 10:05:22;;;;;;;4.53;2.40;;;8.00;99.90;;;;;;5038422;28;20680;-63
2023/11/10 10:07:51;;;;;;;7.73;2.23;;;8.00;99.90;;;;;;5038801;28;20204;-63
2023/11/10 10:10:22;;;;;;;7.00;2.10;;;8.00;99.90;;;;;;5040493;28;20536;-63
2023/11/10 10:12:52;;;;;;;4.73;2.30;;;8.10;99.90;;;;;;5041272;28;20284;-63
2023/11/10 10:15:31;;;;;;;6.20;2.00;;;8.10;99.90;;;;;;5037714;28;20315;-63
2023/11/10 10:18:08;;;;;;;2.37;2.10;;;8.10;99.90;;;;;;5043599;28;20220;-63
2023/11/10 10:20:39;;;;;;;5.80;2.00;;;8.10;99.90;;;;;;5041600;28;20216;-63
2023/11/10 10:23:09;;;;;;;4.80;2.50;;;8.20;99.90;;;;;;5041741;28;20706;-62
2023/11/10 10:25:39;;;;;;;5.80;2.13;;;8.10;99.90;;;;;;5042565;28;20639;-62
2023/11/10 10:28:08;;;;;;;4.07;2.30;;;8.10;99.90;;;;;;5039770;28;20209;-63
2023/11/10 10:30:38;;;;;;;1.97;1.87;;;8.20;99.90;;;;;;5040406;28;20639;-63
2023/11/10 10:33:07;;;;;;;6.33;2.10;;;8.20;99.90;;;;;;5040959;28;20224;-63
2023/11/10 10:35:35;;;;;;;4.33;2.13;;;8.20;99.90;;;;;;5035471;28;20275;-63
2023/11/10 10:38:06;;;;;;;8.70;2.40;;;8.20;99.90;;;;;;5040959;28;20217;-62
2023/11/10 10:40:35;;;;;;;4.73;1.90;;;8.20;99.90;;;;;;5041494;28;20208;-63
2023/11/10 10:43:07;;;;;;;8.00;1.73;;;8.20;99.90;;;;;;5036021;28;20248;-63
2023/11/10 10:45:39;;;;;;;3.10;1.67;;;8.20;99.90;;;;;;5040806;28;20217;-63
2023/11/10 10:48:08;;;;;;;5.17;2.13;;;8.30;99.90;;;;;;5037742;28;20248;-63
2023/11/10 10:50:38;;;;;;;6.67;1.60;;;8.30;99.90;;;;;;5039550;28;20212;-63
2023/11/10 10:53:08;;;;;;;6.03;1.90;;;8.20;99.90;;;;;;5035186;28;20232;-62
2023/11/10 10:55:38;;;;;;;4.57;2.00;;;8.30;99.90;;;;;;5039417;28;20201;-62
2023/11/10 10:58:08;;;;;;;5.17;1.97;;;8.30;99.90;;;;;;5040030;28;20213;-63
2023/11/10 11:00:38;;;;;;;2.30;1.90;;;8.30;99.90;;;;;;5040394;28;20229;-63
2023/11/10 11:03:21;;;;;;;3.67;2.23;;;8.30;99.90;;;;;;5037544;28;20229;-63
2023/11/10 11:06:01;;;;;;;7.10;2.50;;;8.30;99.90;;;;;;5041587;28;20225;-63
2023/11/10 11:08:58;;;;;;;5.83;2.10;;;8.40;99.90;;;;;;5035038;28;20224;-63
2023/11/10 11:11:49;;;;;;;6.97;2.37;;;8.30;99.90;;;;;;5037119;28;20237;-62
2023/11/10 11:14:37;;;;;;;7.23;2.03;;;8.40;99.90;;;;;;5041163;28;20233;-62
2023/11/10 11:17:26;;;;;;;5.07;2.10;;;8.40;99.90;;;;;;5035123;28;20229;-63
2023/11/10 11:19:56;;;;;;;6.90;2.20;;;8.50;99.90;;;;;;5038944;28;20271;-62
2023/11/10 11:22:24;;;;;;;7.90;2.40;;;8.50;99.90;;;;;;5035934;28;20726;-63
2023/11/10 11:24:52;;;;;;;4.80;2.10;;;8.60;99.90;;;;;;5039541;28;20209;-62
2023/11/10 11:27:22;;;;;;;5.40;2.10;;;8.60;99.90;;;;;;5041730;28;20691;-63
2023/11/10 11:29:56;;;;;;;6.37;2.30;;;8.60;99.90;;;;;;5034800;28;20290;-63
2023/11/10 11:32:30;;;;;;;6.53;2.37;;;8.50;99.90;;;;;;5039509;28;20256;-63
2023/11/10 11:34:58;;;;;;;9.03;2.63;;;8.60;99.90;;;;;;5037236;28;20609;-63
2023/11/10 11:37:31;;;;;;;7.53;2.40;;;8.60;99.90;;;;;;5038604;28;20202;-63
2023/11/10 11:40:01;;;;;;;4.07;2.50;;;8.60;99.90;;;;;;5039466;28;20241;-63
2023/11/10 11:42:36;;;;;;;8.90;2.70;;;8.70;99.90;;;;;;5039998;28;20225;-63
2023/11/10 11:45:12;;;;;;;8.27;2.63;;;8.70;99.90;;;;;;5038246;28;20604;-62
2023/11/10 11:47:42;;;;;;;5.97;2.20;;;8.80;99.90;;;;;;5037027;28;20254;-63
2023/11/10 11:50:11;;;;;;;5.93;2.63;;;9.00;99.90;;;;;;5039530;28;20225;-63
2023/11/10 11:52:40;;;;;;;4.27;2.07;;;9.30;99.90;;;;;;5042078;28;20194;-62
2023/11/10 11:55:09;;;;;;;8.13;2.63;;;9.50;99.90;;;;;;5039513;28;20193;-63
2023/11/10 11:57:38;;;;;;;7.27;2.43;;;9.70;99.90;;;;;;5039795;28;20227;-63
2023/11/10 12:00:08;;;;;;;9.07;2.00;;;9.60;99.90;;;;;;5038740;28;20590;-63
2023/11/10 12:02:39;;;;;;;6.20;2.03;;;9.60;99.90;;;;;;5037270;28;20316;-63
2023/11/10 12:05:12;;;;;;;8.37;2.13;;;9.60;99.90;;;;;;5033939;28;20228;-63
2023/11/10 12:07:42;;;;;;;10.27;2.73;;;9.60;99.90;;;;;;5037695;28;20188;-62
2023/11/10 12:10:12;;;;;;;10.47;2.47;;;9.50;99.90;;;;;;5037521;28;20196;-63
2023/11/10 12:12:41;;;;;;;6.00;2.70;;;9.40;99.90;;;;;;5038801;28;20213;-63
2023/11/10 12:15:10;;;;;;;5.10;2.20;;;9.30;99.90;;;;;;5036273;28;20224;-62
2023/11/10 12:17:39;;;;;;;10.17;2.10;;;9.40;99.90;;;;;;5037351;28;20225;-63
2023/11/10 12:20:11;;;;;;;7.13;2.10;;;9.40;99.90;;;;;;5033642;28;20233;-62
2023/11/10 12:22:39;;;;;;;7.07;2.30;;;9.40;99.90;;;;;;5041475;28;20225;-62
2023/11/10 12:25:10;;;;;;;6.00;2.00;;;9.40;99.90;;;;;;5039237;28;20651;-63
2023/11/10 12:27:38;;;;;;;7.67;2.30;;;9.30;99.90;;;;;;5042158;28;20213;-63
2023/11/10 12:30:08;;;;;;;4.60;2.33;;;9.30;99.90;;;;;;5042226;28;20579;-62
2023/11/10 12:32:39;;;;;;;9.03;2.10;;;9.30;99.90;;;;;;5045704;28;20220;-62
2023/11/10 12:35:10;;;;;;;6.73;1.93;;;9.30;99.90;;;;;;5043085;28;20307;-62
2023/11/10 12:37:39;;;;;;;6.73;2.63;;;9.30;99.90;;;;;;5039596;28;20193;-62
2023/11/10 12:40:11;;;;;;;7.80;2.13;;;9.30;99.90;;;;;;5041620;28;20216;-63
2023/11/10 12:42:40;;;;;;;5.93;2.03;;;9.30;99.90;;;;;;5043713;28;20217;-62
2023/11/10 12:45:10;;;;;;;9.87;2.97;;;9.30;99.90;;;;;;5040634;28;20235;-62
2023/11/10 12:47:39;;;;;;;4.20;2.33;;;9.30;99.90;;;;;;5046240;28;20693;-62
2023/11/10 12:50:13;;;;;;;3.90;2.07;;;9.30;99.90;;;;;;5045453;28;20278;-62
2023/11/10 12:52:41;;;;;;;6.63;2.03;;;9.30;99.90;;;;;;5042871;28;20197;-63
2023/11/10 12:55:10;;;;;;;3.90;1.90;;;9.30;99.90;;;;;;5045149;28;20571;-63
2023/11/10 12:57:39;;;;;;;4.53;1.77;;;9.30;99.90;;;;;;5043859;28;20217;-63
2023/11/10 13:00:12;;;;;;;3.93;1.87;;;9.30;99.90;;;;;;5043253;28;20220;-63
2023/11/10 13:02:41;;;;;;;4.90;2.10;;;9.30;99.90;;;;;;5043957;28;20228;-62
2023/11/10 13:05:14;;;;;;;5.30;1.70;;;9.40;99.90;;;;;;5039971;28;20229;-63
2023/11/10 13:07:43;;;;;;;3.00;1.93;;;9.40;99.90;;;;;;5048307;28;20192;-62